Time;durP1;ratioP1;P1;durP2;ratioP2;P2;SDS_P1;SDS_P2;PMS_P1;PMS_P2;Temp;Humidity;BMP_temperature;BMP_pressure;BME280_temperature;BME280_humidity;BME280_pressure;Samples;Min_cycle;Max_cycle;Signal;HPM_P1;HPM_P2
2023/04/14 00:00:05;;;;;;;;;;;;;;;7.09;70.69;100224.72;5072935;28;4213;-79
2023/04/14 00:02:31;;;;;;;;;;;;;;;7.10;70.41;100233.59;5073032;28;2742;-78
2023/04/14 00:04:58;;;;;;;;;;;;;;;7.09;70.55;100234.59;5074876;28;3389;-78
2023/04/14 00:07:25;;;;;;;;;;;;;;;7.09;70.45;100238.13;5058523;28;1645;-77
2023/04/14 00:09:51;;;;;;;;;;;;;;;7.09;70.80;100240.81;5053920;28;1709;-77
2023/04/14 00:12:18;;;;;;;;;;;;;;;7.09;70.83;100243.47;5075438;28;1643;-77
2023/04/14 00:14:44;;;;;;;;;;;;;;;7.09;70.63;100250.66;5063270;28;2131;-78
2023/04/14 00:17:11;;;;;;;;;;;;;;;7.09;70.42;100250.66;5063165;28;4286;-77
2023/04/14 00:19:37;;;;;;;;;;;;;;;7.08;70.75;100251.72;5081259;28;1121;-76
2023/04/14 00:22:04;;;;;;;;;;;;;;;7.08;70.51;100255.19;5080058;28;2172;-77
2023/04/14 00:24:30;;;;;;;;;;;;;;;7.08;70.49;100252.53;5057504;28;1987;-77
2023/04/14 00:26:57;;;;;;;;;;;;;;;7.09;70.65;100269.41;5051129;28;1722;-78
2023/04/14 00:29:23;;;;;;;;;;;;;;;7.08;70.55;100268.59;5046384;28;2067;-78
2023/04/14 00:31:50;;;;;;;;;;;;;;;7.08;70.73;100263.22;5051940;28;1998;-76
2023/04/14 00:34:16;;;;;;;;;;;;;;;7.08;70.71;100265.09;5048174;28;1610;-78
2023/04/14 00:36:43;;;;;;;;;;;;;;;7.07;70.52;100268.81;5047933;28;1710;-76
2023/04/14 00:39:09;;;;;;;;;;;;;;;7.07;70.35;100275.00;5047612;28;1660;-78
2023/04/14 00:41:36;;;;;;;;;;;;;;;7.07;70.50;100275.00;5058501;28;2031;-78
2023/04/14 00:44:02;;;;;;;;;;;;;;;7.07;70.45;100277.66;5049585;28;2148;-79
2023/04/14 00:46:30;;;;;;;;;;;;;;;7.08;70.30;100281.16;5074231;28;2218;-77
2023/04/14 00:48:56;;;;;;;;;;;;;;;7.07;70.34;100285.69;5048073;28;1638;-77
2023/04/14 00:51:23;;;;;;;;;;;;;;;7.06;70.40;100292.09;5039640;28;2025;-78
2023/04/14 00:53:49;;;;;;;;;;;;;;;7.05;70.45;100293.91;5045365;28;2063;-79
2023/04/14 00:56:17;;;;;;;;;;;;;;;7.07;70.28;100288.38;5045233;28;2146;-77
2023/04/14 00:58:43;;;;;;;;;;;;;;;7.07;70.68;100292.91;5053100;28;4383;-76
2023/04/14 01:01:11;;;;;;;;;;;;;;;7.07;70.66;100301.78;5043974;28;4748;-77
2023/04/14 01:03:38;;;;;;;;;;;;;;;7.07;70.46;100298.28;5050283;28;1910;-78
2023/04/14 01:06:05;;;;;;;;;;;;;;;7.07;70.36;100300.94;5058532;28;3335;-78
2023/04/14 01:08:32;;;;;;;;;;;;;;;7.05;70.50;100310.00;5057190;28;1898;-77
2023/04/14 01:10:59;;;;;;;;;;;;;;;7.07;70.58;100303.63;5054356;28;2014;-79
2023/04/14 01:13:32;;;;;;;;;;;;;;;7.06;70.34;100308.16;5050760;28;2433;-77
2023/04/14 01:15:58;;;;;;;;;;;;;;;7.05;70.54;100304.63;5053389;28;2176;-76
2023/04/14 01:18:25;;;;;;;;;;;;;;;7.04;70.65;100311.03;5045087;28;4836;-78
2023/04/14 01:20:52;;;;;;;;;;;;;;;7.04;70.39;100313.72;5050335;28;1967;-78
2023/04/14 01:23:18;;;;;;;;;;;;;;;7.05;70.55;100318.03;5045004;28;2017;-76
2023/04/14 01:25:45;;;;;;;;;;;;;;;7.04;70.59;100319.06;5048348;28;1956;-77
2023/04/14 01:28:11;;;;;;;;;;;;;;;7.04;70.25;100329.78;5065276;28;1672;-77
2023/04/14 01:30:38;;;;;;;;;;;;;;;7.05;70.54;100333.28;5061481;28;2046;-78
2023/04/14 01:33:04;;;;;;;;;;;;;;;7.04;70.68;100328.94;5066560;28;1878;-78
2023/04/14 01:35:31;;;;;;;;;;;;;;;7.04;70.69;100336.97;5045104;28;1752;-79
2023/04/14 01:37:58;;;;;;;;;;;;;;;6.50;70.34;100252.16;5037519;28;3486;-76
2023/04/14 01:40:24;;;;;;;;;;;;;;;7.04;70.35;100334.31;5063282;28;2242;-76
2023/04/14 01:42:51;;;;;;;;;;;;;;;7.03;70.36;100341.53;5056070;28;1882;-77
2023/04/14 01:45:18;;;;;;;;;;;;;;;7.04;70.61;100343.16;5060393;28;2710;-78
2023/04/14 01:47:44;;;;;;;;;;;;;;;7.05;70.73;100341.31;5062236;28;1626;-79
2023/04/14 01:50:11;;;;;;;;;;;;;;;7.04;70.26;100353.06;5062066;28;1841;-78
2023/04/14 01:52:37;;;;;;;;;;;;;;;7.03;70.71;100351.41;5068162;28;2003;-77
2023/04/14 01:55:05;;;;;;;;;;;;;;;7.02;70.67;100350.56;5061745;28;1730;-79
2023/04/14 01:57:32;;;;;;;;;;;;;;;7.03;70.32;100354.09;5062486;28;2542;-79
2023/04/14 01:59:59;;;;;;;;;;;;;;;7.03;70.71;100354.09;5068153;28;2140;-78
2023/04/14 02:02:25;;;;;;;;;;;;;;;7.02;70.33;100358.59;5065799;28;1709;-78
2023/04/14 02:04:52;;;;;;;;;;;;;;;7.02;70.70;100363.94;5063963;28;1977;-80
2023/04/14 02:07:18;;;;;;;;;;;;;;;7.02;70.57;100363.94;5060565;28;4983;-77
2023/04/14 02:09:45;;;;;;;;;;;;;;;7.02;70.56;100365.81;5068617;28;4215;-78
2023/04/14 02:12:12;;;;;;;;;;;;;;;7.02;70.67;100357.78;5047978;28;1715;-78
2023/04/14 02:14:38;;;;;;;;;;;;;;;7.01;70.56;100370.34;5063041;28;4291;-79
2023/04/14 02:17:06;;;;;;;;;;;;;;;7.01;70.76;100370.34;5062501;28;2219;-76
2023/04/14 02:19:32;;;;;;;;;;;;;;;7.02;70.26;100376.53;5044502;28;2275;-80
2023/04/14 02:21:59;;;;;;;;;;;;;;;7.01;70.39;100380.22;5053235;28;1783;-78
2023/04/14 02:24:25;;;;;;;;;;;;;;;7.01;70.67;100381.06;5050096;28;2011;-77
2023/04/14 02:26:52;;;;;;;;;;;;;;;7.01;70.66;100377.56;5060234;28;3284;-79
2023/04/14 02:29:19;;;;;;;;;;;;;;;7.00;70.56;100392.81;5055947;28;1968;-76
2023/04/14 02:31:46;;;;;;;;;;;;;;;7.01;70.79;100393.63;5066303;28;1979;-77
2023/04/14 02:34:12;;;;;;;;;;;;;;;7.01;70.58;100397.13;5063057;28;1768;-79
2023/04/14 02:36:39;;;;;;;;;;;;;;;7.01;70.84;100396.31;5061392;28;1969;-77
2023/04/14 02:39:05;;;;;;;;;;;;;;;7.01;70.46;100409.69;5065369;28;2550;-78
2023/04/14 02:41:32;;;;;;;;;;;;;;;7.01;70.74;100409.69;5070652;28;2013;-78
2023/04/14 02:43:58;;;;;;;;;;;;;;;7.01;70.64;100415.88;5061436;28;1934;-77
2023/04/14 02:46:25;;;;;;;;;;;;;;;7.00;70.59;100416.91;5068614;28;2062;-77
2023/04/14 02:48:51;;;;;;;;;;;;;;;7.01;70.74;100413.19;5060678;28;1995;-76
2023/04/14 02:51:18;;;;;;;;;;;;;;;7.01;70.47;100420.41;5062024;28;1701;-79
2023/04/14 02:53:44;;;;;;;;;;;;;;;7.01;70.78;100423.06;5062455;28;2095;-78
2023/04/14 02:56:11;;;;;;;;;;;;;;;7.00;70.65;100429.44;5051758;28;1609;-78
2023/04/14 02:58:38;;;;;;;;;;;;;;;7.01;70.68;100423.06;5064663;28;1644;-77
2023/04/14 03:01:04;;;;;;;;;;;;;;;7.00;70.55;100427.63;5045403;28;2057;-79
2023/04/14 03:03:32;;;;;;;;;;;;;;;7.00;70.48;100427.63;5064459;28;1961;-77
2023/04/14 03:05:58;;;;;;;;;;;;;;;6.99;70.55;100428.63;5058913;28;1947;-78
2023/04/14 03:08:25;;;;;;;;;;;;;;;6.99;70.95;100430.47;5039765;28;4870;-81
2023/04/14 03:10:52;;;;;;;;;;;;;;;6.98;70.41;100442.22;5069320;28;4202;-78
2023/04/14 03:13:18;;;;;;;;;;;;;;;6.98;70.78;100436.88;5062761;28;1627;-78
2023/04/14 03:15:45;;;;;;;;;;;;;;;6.98;70.83;100447.56;5064257;28;3264;-79
2023/04/14 03:18:11;;;;;;;;;;;;;;;6.98;70.66;100444.91;5045069;28;1721;-78
2023/04/14 03:20:38;;;;;;;;;;;;;;;6.97;71.05;100444.06;5058664;28;1942;-77
2023/04/14 03:23:05;;;;;;;;;;;;;;;6.97;70.69;100451.25;5059721;28;1639;-78
2023/04/14 03:25:31;;;;;;;;;;;;;;;6.96;70.89;100453.13;5062509;28;1977;-81
2023/04/14 03:27:58;;;;;;;;;;;;;;;6.96;70.86;100454.97;5059647;28;3990;-79
2023/04/14 03:30:25;;;;;;;;;;;;;;;6.96;70.49;100455.78;5049280;28;2178;-78
2023/04/14 03:32:51;;;;;;;;;;;;;;;6.97;70.74;100453.94;5050803;28;1674;-79
2023/04/14 03:35:18;;;;;;;;;;;;;;;6.97;70.71;100456.63;5058451;28;1684;-78
2023/04/14 03:37:44;;;;;;;;;;;;;;;6.97;70.70;100451.25;5044290;28;1676;-78
2023/04/14 03:40:12;;;;;;;;;;;;;;;6.97;70.37;100454.78;5052876;28;2126;-78
2023/04/14 03:42:38;;;;;;;;;;;;;;;6.96;70.54;100463.00;5066453;28;1672;-78
2023/04/14 03:45:05;;;;;;;;;;;;;;;6.95;70.67;100462.19;5060229;28;1961;-76
2023/04/14 03:47:31;;;;;;;;;;;;;;;6.96;70.45;100469.19;5063037;28;2032;-78
2023/04/14 03:49:58;;;;;;;;;;;;;;;6.95;70.47;100467.53;5058623;28;2061;-76
2023/04/14 03:52:25;;;;;;;;;;;;;;;6.96;70.25;100471.03;5058507;28;1979;-79
2023/04/14 03:54:52;;;;;;;;;;;;;;;6.95;70.52;100474.75;5060510;28;1656;-79
2023/04/14 03:57:19;;;;;;;;;;;;;;;6.95;70.47;100477.44;5045151;28;2199;-79
2023/04/14 03:59:45;;;;;;;;;;;;;;;6.95;70.45;100482.78;5045368;28;1997;-79
2023/04/14 04:02:12;;;;;;;;;;;;;;;6.95;70.18;100493.50;5061873;28;1959;-78
2023/04/14 04:04:38;;;;;;;;;;;;;;;6.95;70.44;100493.50;5045840;28;2002;-77
2023/04/14 04:07:06;;;;;;;;;;;;;;;6.94;70.33;100502.53;5070480;28;2012;-79
2023/04/14 04:09:33;;;;;;;;;;;;;;;6.93;70.20;100500.88;5050544;28;3487;-78
2023/04/14 04:12:00;;;;;;;;;;;;;;;6.93;70.38;100503.56;5070426;28;1938;-76
2023/04/14 04:14:27;;;;;;;;;;;;;;;6.94;70.40;100514.09;5055564;28;4916;-81
2023/04/14 04:16:53;;;;;;;;;;;;;;;6.92;70.15;100510.78;5051403;28;3354;-78
2023/04/14 04:19:20;;;;;;;;;;;;;;;6.93;70.32;100514.28;5064033;28;3210;-78
2023/04/14 04:21:47;;;;;;;;;;;;;;;6.92;70.26;100516.13;5056925;28;2004;-79
2023/04/14 04:24:13;;;;;;;;;;;;;;;6.92;70.30;100518.81;5061185;28;1906;-78
2023/04/14 04:26:40;;;;;;;;;;;;;;;6.93;70.10;100523.13;5058479;28;1973;-79
2023/04/14 04:29:07;;;;;;;;;;;;;;;6.93;70.08;100527.66;5063798;28;2139;-78
2023/04/14 04:31:33;;;;;;;;;;;;;;;6.92;70.14;100531.38;5061256;28;4044;-78
2023/04/14 04:34:01;;;;;;;;;;;;;;;6.91;70.03;100540.41;5065104;28;1707;-77
2023/04/14 04:36:28;;;;;;;;;;;;;;;6.92;70.13;100542.09;5060771;28;1843;-77
2023/04/14 04:38:55;;;;;;;;;;;;;;;6.92;70.08;100542.09;5060184;28;1907;-78
2023/04/14 04:41:22;;;;;;;;;;;;;;;6.91;70.47;100543.94;5050156;28;1692;-78
2023/04/14 04:43:49;;;;;;;;;;;;;;;6.91;70.47;100553.78;5049935;28;1918;-78
2023/04/14 04:46:15;;;;;;;;;;;;;;;6.92;70.31;100555.47;5064029;28;2081;-78
2023/04/14 04:48:42;;;;;;;;;;;;;;;6.91;70.32;100554.66;5049899;28;1587;-78
2023/04/14 04:51:08;;;;;;;;;;;;;;;6.92;70.42;100558.97;5050857;28;1782;-77
2023/04/14 04:53:35;;;;;;;;;;;;;;;6.92;70.11;100564.31;5062574;28;1958;-79
2023/04/14 04:56:02;;;;;;;;;;;;;;;6.91;70.32;100564.50;5063307;28;2078;-78
2023/04/14 04:58:28;;;;;;;;;;;;;;;6.90;70.27;100563.69;5070760;28;1998;-78
2023/04/14 05:00:55;;;;;;;;;;;;;;;6.90;69.93;100574.41;5069687;28;1844;-78
2023/04/14 05:03:21;;;;;;;;;;;;;;;6.91;70.35;100568.03;5075465;28;1578;-78
2023/04/14 05:05:48;;;;;;;;;;;;;;;6.90;70.18;100571.72;5075870;28;2062;-78
2023/04/14 05:08:14;;;;;;;;;;;;;;;6.90;70.05;100565.53;5076087;28;1681;-76
2023/04/14 05:10:41;;;;;;;;;;;;;;;6.89;69.96;100567.41;5058637;28;1745;-78
2023/04/14 05:13:07;;;;;;;;;;;;;;;6.89;70.25;100570.06;5061971;28;1911;-76
2023/04/14 05:15:34;;;;;;;;;;;;;;;6.89;70.26;100574.59;5074922;28;2168;-79
2023/04/14 05:18:01;;;;;;;;;;;;;;;6.90;70.21;100574.41;5071631;28;4864;-77
2023/04/14 05:20:35;;;;;;;;;;;;;;;6.90;70.13;100581.59;5057135;28;4143;-77
2023/04/14 05:23:02;;;;;;;;;;;;;;;6.89;69.88;100578.09;5059136;28;4133;-77
2023/04/14 05:25:29;;;;;;;;;;;;;;;6.89;70.17;100585.31;5057805;28;1914;-79
2023/04/14 05:27:57;;;;;;;;;;;;;;;6.89;69.90;100588.00;5062225;28;1677;-76
2023/04/14 05:30:26;;;;;;;;;;;;;;;6.89;69.95;100591.50;5057538;28;1964;-77
2023/04/14 05:32:53;;;;;;;;;;;;;;;6.89;69.84;100596.84;5074849;28;1985;-78
2023/04/14 05:35:19;;;;;;;;;;;;;;;6.90;70.14;100600.34;5073068;28;4076;-78
2023/04/14 05:37:46;;;;;;;;;;;;;;;6.88;69.77;100597.84;5075085;28;2163;-78
2023/04/14 05:40:12;;;;;;;;;;;;;;;6.88;70.14;100599.69;5075677;28;2252;-79
2023/04/14 05:42:40;;;;;;;;;;;;;;;6.87;69.78;100590.03;5077965;28;2117;-77
2023/04/14 05:45:07;;;;;;;;;;;;;;;6.88;69.97;100600.53;5073664;28;2033;-76
2023/04/14 05:47:33;;;;;;;;;;;;;;;6.88;70.05;100600.53;5074767;28;2122;-76
2023/04/14 05:50:02;;;;;;;;;;;;;;;6.87;70.15;100592.69;5058639;28;1728;-78
2023/04/14 05:52:29;;;;;;;;;;;;;;;6.88;69.97;100600.53;5059383;28;2001;-75
2023/04/14 05:54:55;;;;;;;;;;;;;;;6.88;70.23;100605.06;5058570;28;2760;-77
2023/04/14 05:57:22;;;;;;;;;;;;;;;6.87;69.90;100606.91;5075773;28;2100;-77
2023/04/14 05:59:50;;;;;;;;;;;;;;;6.88;70.21;100621.13;5078561;28;2256;-78
2023/04/14 06:02:16;;;;;;;;;;;;;;;6.89;69.66;100618.28;5078658;28;2010;-77
2023/04/14 06:04:43;;;;;;;;;;;;;;;6.88;70.14;100615.78;5082521;28;1944;-77
2023/04/14 06:07:09;;;;;;;;;;;;;;;6.86;69.93;100613.31;5064385;28;3705;-75
2023/04/14 06:09:36;;;;;;;;;;;;;;;6.87;69.93;100608.78;5080142;28;3876;-76
2023/04/14 06:12:02;;;;;;;;;;;;;;;6.87;70.03;100609.59;5081676;28;1542;-75
2023/04/14 06:14:29;;;;;;;;;;;;;;;6.86;70.01;100607.13;5082321;28;2801;-77
2023/04/14 06:16:55;;;;;;;;;;;;;;;6.85;69.92;100608.94;5081033;28;2080;-77
2023/04/14 06:19:22;;;;;;;;;;;;;;;6.85;70.08;100613.47;5080298;28;1530;-77
2023/04/14 06:21:49;;;;;;;;;;;;;;;6.85;69.99;100619.66;5080950;28;2346;-75
2023/04/14 06:24:15;;;;;;;;;;;;;;;6.85;69.74;100616.97;5078514;28;2214;-79
2023/04/14 06:26:42;;;;;;;;;;;;;;;6.86;70.07;100613.31;5055416;28;5041;-78
2023/04/14 06:29:09;;;;;;;;;;;;;;;6.87;69.67;100622.16;5078577;28;4203;-77
2023/04/14 06:31:35;;;;;;;;;;;;;;;6.86;69.80;100623.19;5059875;28;3479;-78
2023/04/14 06:34:02;;;;;;;;;;;;;;;6.86;69.80;100631.22;5057093;28;1954;-78
2023/04/14 06:36:28;;;;;;;;;;;;;;;6.84;70.05;100626.03;5072504;28;1672;-77
2023/04/14 06:38:55;;;;;;;;;;;;;;;6.85;69.95;100629.53;5078223;28;2154;-77
2023/04/14 06:41:22;;;;;;;;;;;;;;;6.85;70.02;100626.88;5082056;28;1573;-78
2023/04/14 06:43:48;;;;;;;;;;;;;;;6.85;69.65;100637.56;5076531;28;3614;-78
2023/04/14 06:46:16;;;;;;;;;;;;;;;6.84;70.06;100639.44;5063093;28;2233;-77
2023/04/14 06:48:42;;;;;;;;;;;;;;;6.83;69.84;100638.59;5066373;28;2058;-76
2023/04/14 06:51:11;;;;;;;;;;;;;;;6.83;69.83;100643.97;5068529;28;2099;-76
2023/04/14 06:53:39;;;;;;;;;;;;;;;6.84;70.08;100647.47;5079468;28;2099;-76
2023/04/14 06:56:06;;;;;;;;;;;;;;;6.83;69.81;100643.13;5058459;28;2209;-78
2023/04/14 06:58:33;;;;;;;;;;;;;;;6.83;70.08;100657.34;5066207;28;1770;-77
2023/04/14 07:00:59;;;;;;;;;;;;;;;6.83;70.14;100660.03;5054632;28;3478;-76
2023/04/14 07:03:26;;;;;;;;;;;;;;;6.82;70.04;100671.75;5048495;28;2322;-77
2023/04/14 07:05:53;;;;;;;;;;;;;;;6.83;70.20;100664.56;5068701;28;2416;-78
2023/04/14 07:08:19;;;;;;;;;;;;;;;6.82;70.00;100673.59;5055745;28;2171;-78
2023/04/14 07:10:46;;;;;;;;;;;;;;;6.83;69.78;100683.28;5044645;28;1736;-77
2023/04/14 07:13:13;;;;;;;;;;;;;;;6.83;69.97;100680.63;5070015;28;1885;-79
2023/04/14 07:15:39;;;;;;;;;;;;;;;6.83;70.22;100683.28;5067334;28;2170;-78
2023/04/14 07:18:06;;;;;;;;;;;;;;;6.81;70.09;100680.78;5068433;28;2599;-76
2023/04/14 07:20:32;;;;;;;;;;;;;;;6.82;69.85;100679.78;5049687;28;1716;-77
2023/04/14 07:22:59;;;;;;;;;;;;;;;6.82;69.80;100682.47;5068608;28;1645;-78
2023/04/14 07:25:26;;;;;;;;;;;;;;;6.82;69.71;100681.63;5067514;28;1983;-78
2023/04/14 07:27:52;;;;;;;;;;;;;;;6.83;70.05;100683.28;5044116;28;1737;-77
2023/04/14 07:30:19;;;;;;;;;;;;;;;6.83;70.14;100691.31;5065521;28;4764;-76
2023/04/14 07:32:46;;;;;;;;;;;;;;;6.83;70.17;100696.69;5052827;28;4162;-78
2023/04/14 07:35:13;;;;;;;;;;;;;;;6.83;70.01;100699.38;5051470;28;1625;-78
2023/04/14 07:37:40;;;;;;;;;;;;;;;6.82;69.81;100689.66;5063129;28;5131;-77
2023/04/14 07:40:07;;;;;;;;;;;;;;;6.81;69.77;100694.19;5081082;28;1215;-77
2023/04/14 07:42:33;;;;;;;;;;;;;;;6.81;69.82;100693.34;5067281;28;1651;-76
2023/04/14 07:45:00;;;;;;;;;;;;;;;6.82;69.84;100701.22;5062376;28;1914;-77
2023/04/14 07:47:27;;;;;;;;;;;;;;;6.83;69.95;100704.72;5080470;28;1300;-79
2023/04/14 07:49:53;;;;;;;;;;;;;;;6.82;69.80;100705.72;5070552;28;3513;-77
2023/04/14 07:52:20;;;;;;;;;;;;;;;6.81;69.93;100704.88;5081890;28;1674;-77
2023/04/14 07:54:46;;;;;;;;;;;;;;;6.81;69.84;100710.25;5081719;28;1557;-77
2023/04/14 07:57:13;;;;;;;;;;;;;;;6.82;69.80;100713.75;5079963;28;1583;-78
2023/04/14 07:59:41;;;;;;;;;;;;;;;6.82;70.06;100719.97;5072776;28;1999;-77
2023/04/14 08:02:08;;;;;;;;;;;;;;;6.81;69.98;100723.63;5060515;28;1681;-77
2023/04/14 08:04:35;;;;;;;;;;;;;;;6.83;70.07;100731.50;5053425;28;1625;-77
2023/04/14 08:07:02;;;;;;;;;;;;;;;6.82;70.13;100729.81;5058144;28;1957;-78
2023/04/14 08:09:28;;;;;;;;;;;;;;;6.81;69.83;100731.66;5062253;28;1356;-78
2023/04/14 08:11:56;;;;;;;;;;;;;;;6.80;70.08;100740.72;5062672;28;1455;-78
2023/04/14 08:14:22;;;;;;;;;;;;;;;6.81;70.10;100734.34;5066900;28;1514;-78
2023/04/14 08:16:49;;;;;;;;;;;;;;;6.81;70.07;100729.00;5066812;28;1689;-77
2023/04/14 08:19:16;;;;;;;;;;;;;;;6.81;69.90;100734.34;5066412;28;1435;-77
2023/04/14 08:21:42;;;;;;;;;;;;;;;6.80;70.09;100735.38;5083189;28;1030;-77
2023/04/14 08:24:09;;;;;;;;;;;;;;;6.80;70.09;100740.72;5084238;28;1399;-77
2023/04/14 08:26:35;;;;;;;;;;;;;;;6.80;69.79;100734.53;5066186;28;1910;-78
2023/04/14 08:29:02;;;;;;;;;;;;;;;6.81;70.10;100741.56;5067200;28;1170;-78
2023/04/14 08:31:28;;;;;;;;;;;;;;;6.82;70.03;100743.19;5081139;28;1058;-78
2023/04/14 08:33:56;;;;;;;;;;;;;;;6.82;69.82;100749.41;5085166;28;1392;-78
2023/04/14 08:36:22;;;;;;;;;;;;;;;6.82;70.04;100748.56;5066535;28;1604;-79
2023/04/14 08:38:49;;;;;;;;;;;;;;;6.81;69.68;100750.41;5085333;28;1661;-77
2023/04/14 08:41:16;;;;;;;;;;;;;;;6.81;70.11;100745.03;5078163;28;4878;-77
2023/04/14 08:43:43;;;;;;;;;;;;;;;6.81;69.92;100750.41;5067098;28;4388;-77
2023/04/14 08:46:11;;;;;;;;;;;;;;;6.80;69.67;100748.75;5067700;28;4155;-78
2023/04/14 08:48:37;;;;;;;;;;;;;;;6.80;69.68;100753.28;5079752;28;1927;-78
2023/04/14 08:51:05;;;;;;;;;;;;;;;6.80;69.84;100759.47;5066189;28;1517;-78
2023/04/14 08:53:31;;;;;;;;;;;;;;;6.80;70.02;100756.78;5078178;28;1682;-77
2023/04/14 08:55:58;;;;;;;;;;;;;;;6.81;70.00;100753.09;5084510;28;1406;-78
2023/04/14 08:58:25;;;;;;;;;;;;;;;6.82;69.75;100756.59;5085027;28;4276;-78
2023/04/14 09:00:53;;;;;;;;;;;;;;;6.80;69.65;100754.13;5066926;28;1560;-77
2023/04/14 09:03:20;;;;;;;;;;;;;;;6.80;69.87;100750.63;5084500;28;1828;-78
2023/04/14 09:05:46;;;;;;;;;;;;;;;6.81;69.87;100766.47;5083348;28;2013;-76
2023/04/14 09:08:13;;;;;;;;;;;;;;;6.81;69.82;100771.00;5084465;28;1236;-77
2023/04/14 09:10:40;;;;;;;;;;;;;;;6.80;69.56;100764.00;5067387;28;1427;-77
2023/04/14 09:13:07;;;;;;;;;;;;;;;6.81;69.62;100765.66;5083308;28;1089;-78
2023/04/14 09:15:34;;;;;;;;;;;;;;;6.81;69.53;100768.31;5084448;28;1061;-77
2023/04/14 09:18:01;;;;;;;;;;;;;;;6.80;69.97;100770.16;5084613;28;1529;-78
2023/04/14 09:20:28;;;;;;;;;;;;;;;6.80;69.71;100772.84;5052170;28;1631;-78
2023/04/14 09:22:55;;;;;;;;;;;;;;;6.82;69.80;100780.69;5068725;28;1545;-78
2023/04/14 09:25:21;;;;;;;;;;;;;;;6.81;69.73;100779.84;5060919;28;2622;-78
2023/04/14 09:27:48;;;;;;;;;;;;;;;6.81;69.56;100776.34;5081435;28;1638;-77
2023/04/14 09:30:16;;;;;;;;;;;;;;;6.81;69.88;100776.34;5081571;28;1022;-77
2023/04/14 09:32:43;;;;;;;;;;;;;;;6.81;69.50;100784.38;5084212;28;1124;-78
2023/04/14 09:35:12;;;;;;;;;;;;;;;6.79;69.82;100781.91;5083993;28;1021;-79
2023/04/14 09:37:40;;;;;;;;;;;;;;;6.80;69.64;100790.78;5066177;28;1392;-78
2023/04/14 09:40:07;;;;;;;;;;;;;;;6.81;69.82;100795.91;5066934;28;1450;-78
2023/04/14 09:42:33;;;;;;;;;;;;;;;6.81;69.64;100795.09;5084588;28;988;-78
2023/04/14 09:45:03;;;;;;;;;;;;;;;6.81;69.81;100800.44;5062457;28;4743;-77
2023/04/14 09:47:30;;;;;;;;;;;;;;;6.80;69.87;100791.59;5081936;28;4191;-78
2023/04/14 09:49:57;;;;;;;;;;;;;;;6.81;69.46;100800.44;5081389;28;1486;-78
2023/04/14 09:52:24;;;;;;;;;;;;;;;6.80;69.65;100806.84;5072118;28;5560;-77
2023/04/14 09:54:50;;;;;;;;;;;;;;;6.79;69.57;100806.00;5083309;28;1296;-79
2023/04/14 09:57:17;;;;;;;;;;;;;;;6.79;69.49;100800.66;5078899;28;1695;-77
2023/04/14 09:59:43;;;;;;;;;;;;;;;6.80;69.54;100813.00;5076075;28;3400;-77
2023/04/14 10:02:10;;;;;;;;;;;;;;;6.80;69.63;100812.19;5073096;28;3419;-79
2023/04/14 10:04:36;;;;;;;;;;;;;;;6.80;69.79;100818.38;5057510;28;1729;-78
2023/04/14 10:07:03;;;;;;;;;;;;;;;6.81;69.47;100824.53;5074545;28;3351;-76
2023/04/14 10:09:29;;;;;;;;;;;;;;;6.80;69.53;100822.91;5061682;28;1677;-78
2023/04/14 10:11:57;;;;;;;;;;;;;;;6.81;69.80;100828.03;5072910;28;1630;-76
2023/04/14 10:14:24;;;;;;;;;;;;;;;6.80;69.74;100833.59;5058154;28;1670;-79
2023/04/14 10:16:50;;;;;;;;;;;;;;;6.80;69.87;100831.75;5063403;28;1639;-78
2023/04/14 10:19:18;;;;;;;;;;;;;;;6.80;70.00;100838.97;5081349;28;3468;-77
2023/04/14 10:21:44;;;;;;;;;;;;;;;6.81;69.51;100829.91;5082607;28;1522;-78
2023/04/14 10:24:11;;;;;;;;;;;;;;;6.80;69.50;100838.97;5083722;28;1220;-77
2023/04/14 10:26:38;;;;;;;;;;;;;;;6.80;69.45;100830.94;5082230;28;1982;-78
2023/04/14 10:29:05;;;;;;;;;;;;;;;6.79;69.70;100827.44;5065483;28;1070;-77
2023/04/14 10:31:32;;;;;;;;;;;;;;;6.79;69.48;100824.75;5065136;28;1657;-79
2023/04/14 10:33:58;;;;;;;;;;;;;;;6.80;69.65;100826.41;5064296;28;1303;-78
2023/04/14 10:36:25;;;;;;;;;;;;;;;6.81;69.74;100827.22;5064726;28;1208;-77
2023/04/14 10:38:51;;;;;;;;;;;;;;;6.79;69.86;100819.41;5082644;28;1245;-78
2023/04/14 10:41:18;;;;;;;;;;;;;;;6.80;69.72;100821.03;5083348;28;1541;-78
2023/04/14 10:43:45;;;;;;;;;;;;;;;6.80;69.54;100828.25;5082600;28;1084;-79
2023/04/14 10:46:12;;;;;;;;;;;;;;;6.78;69.58;100816.88;5078312;28;5442;-77
2023/04/14 10:48:38;;;;;;;;;;;;;;;6.80;69.73;100828.25;5081915;28;4226;-77
2023/04/14 10:51:05;;;;;;;;;;;;;;;6.80;69.75;100828.25;5065404;28;1380;-77
2023/04/14 10:53:32;;;;;;;;;;;;;;;6.80;69.89;100829.06;5065181;28;4089;-77
2023/04/14 10:55:58;;;;;;;;;;;;;;;6.81;69.52;100829.91;5062056;28;1505;-78
2023/04/14 10:58:29;;;;;;;;;;;;;;;6.80;69.64;100836.28;5064088;28;1579;-75
2023/04/14 11:00:56;;;;;;;;;;;;;;;6.81;69.54;100835.25;5064700;28;1346;-78
2023/04/14 11:03:22;;;;;;;;;;;;;;;6.80;69.79;100834.44;5082632;28;976;-78
2023/04/14 11:05:49;;;;;;;;;;;;;;;6.80;69.67;100839.78;5083195;28;4999;-78
2023/04/14 11:08:16;;;;;;;;;;;;;;;6.80;69.86;100836.28;5062764;28;1389;-77
2023/04/14 11:10:43;;;;;;;;;;;;;;;6.79;69.65;100838.13;5076076;28;1503;-78
2023/04/14 11:13:09;;;;;;;;;;;;;;;6.80;69.43;100834.44;5083108;28;1067;-76
2023/04/14 11:15:36;;;;;;;;;;;;;;;6.81;69.47;100840.59;5082373;28;1479;-78
2023/04/14 11:18:02;;;;;;;;;;;;;;;6.80;69.74;100853.16;5082135;28;1039;-76
2023/04/14 11:20:29;;;;;;;;;;;;;;;6.81;69.83;100849.47;5081304;28;1097;-79
2023/04/14 11:22:56;;;;;;;;;;;;;;;6.81;69.43;100849.47;5082524;28;998;-78
2023/04/14 11:25:22;;;;;;;;;;;;;;;6.82;69.66;100855.63;5082751;28;1620;-78
2023/04/14 11:27:49;;;;;;;;;;;;;;;6.80;69.78;100857.69;5063321;28;1914;-77
2023/04/14 11:30:15;;;;;;;;;;;;;;;6.81;69.80;100856.66;5070328;28;2109;-78
2023/04/14 11:32:42;;;;;;;;;;;;;;;6.81;69.68;100860.16;5061281;28;2178;-76
2023/04/14 11:35:09;;;;;;;;;;;;;;;6.80;69.78;100860.38;5062316;28;2002;-77
2023/04/14 11:37:35;;;;;;;;;;;;;;;6.81;69.63;100865.53;5063673;28;1271;-77
2023/04/14 11:40:02;;;;;;;;;;;;;;;6.82;69.68;100866.34;5078870;28;2023;-78
2023/04/14 11:42:29;;;;;;;;;;;;;;;6.82;69.78;100875.25;5079773;28;2089;-79
2023/04/14 11:44:55;;;;;;;;;;;;;;;6.82;69.64;100866.34;5062581;28;1719;-77
2023/04/14 11:47:22;;;;;;;;;;;;;;;6.82;69.85;100866.34;5077573;28;1993;-77
2023/04/14 11:49:48;;;;;;;;;;;;;;;6.83;69.93;100865.34;5080188;28;1583;-79
2023/04/14 11:52:16;;;;;;;;;;;;;;;6.82;69.99;100866.34;5080583;28;1992;-78
2023/04/14 11:54:42;;;;;;;;;;;;;;;6.82;69.64;100866.34;5076982;28;4796;-76
2023/04/14 11:57:09;;;;;;;;;;;;;;;6.81;69.86;100864.69;5080574;28;1649;-77
2023/04/14 11:59:35;;;;;;;;;;;;;;;6.82;69.85;100871.69;5081976;28;3381;-76
2023/04/14 12:02:03;;;;;;;;;;;;;;;6.81;70.02;100862.84;5062827;28;1762;-78
2023/04/14 12:04:30;;;;;;;;;;;;;;;6.83;69.94;100870.72;5081429;28;2000;-79
2023/04/14 12:06:56;;;;;;;;;;;;;;;6.81;69.65;100878.91;5081104;28;1985;-78
2023/04/14 12:09:23;;;;;;;;;;;;;;;6.83;69.93;100876.06;5080835;28;1052;-79
2023/04/14 12:11:50;;;;;;;;;;;;;;;6.83;69.91;100876.06;5074709;28;3382;-78
2023/04/14 12:14:16;;;;;;;;;;;;;;;6.83;69.64;100874.22;5064086;28;901;-77
2023/04/14 12:16:42;;;;;;;;;;;;;;;6.82;69.92;100875.25;5080243;28;1996;-78
2023/04/14 12:19:09;;;;;;;;;;;;;;;6.82;69.85;100872.56;5064888;28;1448;-77
2023/04/14 12:21:36;;;;;;;;;;;;;;;6.82;70.03;100877.06;5062718;28;2009;-77
2023/04/14 12:24:02;;;;;;;;;;;;;;;6.83;69.60;100876.06;5061071;28;2399;-76
2023/04/14 12:26:29;;;;;;;;;;;;;;;6.82;70.00;100877.91;5080500;28;1972;-77
2023/04/14 12:28:55;;;;;;;;;;;;;;;6.82;69.59;100877.91;5081061;28;1283;-78
2023/04/14 12:31:22;;;;;;;;;;;;;;;6.83;69.93;100884.09;5077966;28;4338;-77
2023/04/14 12:33:48;;;;;;;;;;;;;;;6.83;69.76;100878.75;5075522;28;3980;-76
2023/04/14 12:36:15;;;;;;;;;;;;;;;6.83;69.57;100886.78;5076619;28;2572;-78
2023/04/14 12:38:41;;;;;;;;;;;;;;;6.83;70.01;100887.59;5081409;28;1168;-78
2023/04/14 12:41:09;;;;;;;;;;;;;;;6.83;69.83;100889.44;5078339;28;2010;-77
2023/04/14 12:43:36;;;;;;;;;;;;;;;6.83;69.92;100887.59;5075415;28;1825;-78
2023/04/14 12:46:03;;;;;;;;;;;;;;;6.82;70.01;100888.63;5078137;28;1995;-77
2023/04/14 12:48:30;;;;;;;;;;;;;;;6.83;69.89;100881.41;5077643;28;2565;-78
2023/04/14 12:50:56;;;;;;;;;;;;;;;6.83;69.71;100881.41;5078946;28;1565;-78
2023/04/14 12:53:23;;;;;;;;;;;;;;;6.82;69.59;100885.94;5063565;28;1962;-78